Time;durP1;ratioP1;P1;durP2;ratioP2;P2;SDS_P1;SDS_P2;PMS_P1;PMS_P2;Temp;Humidity;BMP_temperature;BMP_pressure;BME280_temperature;BME280_humidity;BME280_pressure;Samples;Min_cycle;Max_cycle;Signal;HPM_P1;HPM_P2
2022/10/16 04:02:06;;;;;;;4.70;2.60;;;16.80;99.90;;;;;;5229520;23;20502;-62
2022/10/16 04:04:33;;;;;;;4.73;2.33;;;16.80;99.90;;;;;;4980828;28;20450;-63
2022/10/16 04:06:59;;;;;;;4.00;3.17;;;16.80;99.90;;;;;;4975112;28;20455;-63
2022/10/16 04:09:26;;;;;;;2.37;2.23;;;16.80;99.90;;;;;;4975442;28;20561;-62
2022/10/16 04:11:56;;;;;;;6.37;2.50;;;16.80;99.90;;;;;;4974783;28;20483;-62
2022/10/16 04:14:22;;;;;;;7.43;2.20;;;16.70;99.90;;;;;;4974907;28;20495;-62
2022/10/16 04:16:49;;;;;;;4.93;2.60;;;16.70;99.90;;;;;;4974983;28;20462;-62
2022/10/16 04:19:17;;;;;;;3.27;2.93;;;16.70;99.90;;;;;;4979391;28;21003;-62
2022/10/16 04:21:44;;;;;;;3.70;2.47;;;16.60;99.90;;;;;;4979656;28;20505;-62
2022/10/16 04:24:11;;;;;;;7.60;2.50;;;16.60;99.90;;;;;;4979865;28;20514;-62
2022/10/16 04:26:38;;;;;;;3.37;2.40;;;16.60;99.90;;;;;;4979855;28;20450;-62
2022/10/16 04:29:04;;;;;;;5.00;2.93;;;16.50;99.90;;;;;;4980196;28;20478;-62
2022/10/16 04:31:31;;;;;;;3.60;2.83;;;16.50;99.90;;;;;;4979912;28;20533;-62
2022/10/16 04:33:57;;;;;;;5.90;2.37;;;16.50;99.90;;;;;;4979522;28;20976;-62
2022/10/16 04:36:26;;;;;;;3.00;2.80;;;16.50;99.90;;;;;;4979337;28;20968;-62
2022/10/16 04:38:52;;;;;;;3.03;2.63;;;16.50;99.90;;;;;;4979465;28;20451;-62
2022/10/16 04:41:19;;;;;;;2.60;2.40;;;16.60;99.90;;;;;;4978374;28;20545;-62
2022/10/16 04:43:45;;;;;;;4.00;2.60;;;16.50;99.90;;;;;;4978017;28;20551;-62
2022/10/16 04:46:12;;;;;;;2.73;1.90;;;16.60;99.90;;;;;;4978197;28;20458;-62
2022/10/16 04:48:39;;;;;;;4.63;2.57;;;16.60;99.90;;;;;;4978071;28;20458;-62
2022/10/16 04:51:05;;;;;;;3.47;2.40;;;16.60;99.90;;;;;;4978000;28;20474;-62
2022/10/16 04:53:34;;;;;;;2.40;2.30;;;16.60;99.90;;;;;;4978115;28;20513;-62
2022/10/16 04:56:00;;;;;;;2.63;2.53;;;16.50;99.90;;;;;;4977815;28;20838;-62
2022/10/16 04:58:27;;;;;;;2.83;2.27;;;16.50;99.90;;;;;;4977926;28;20455;-62
2022/10/16 05:00:54;;;;;;;6.03;2.20;;;16.60;99.90;;;;;;4977939;28;20537;-62
2022/10/16 05:03:21;;;;;;;4.13;2.33;;;16.60;99.90;;;;;;4977916;28;20450;-62
2022/10/16 05:05:48;;;;;;;3.83;2.47;;;16.60;99.90;;;;;;4977837;28;20458;-62
2022/10/16 05:08:15;;;;;;;3.33;2.70;;;16.60;99.90;;;;;;4978088;28;20458;-62
2022/10/16 05:10:45;;;;;;;3.03;2.30;;;16.70;99.90;;;;;;4977725;28;20537;-62
2022/10/16 05:13:12;;;;;;;2.37;1.90;;;16.70;99.90;;;;;;4977742;28;20830;-62
2022/10/16 05:15:39;;;;;;;3.70;2.33;;;16.70;99.90;;;;;;4977459;28;20942;-62
2022/10/16 05:18:06;;;;;;;2.40;2.10;;;16.70;99.90;;;;;;4978482;28;20459;-61
2022/10/16 05:20:32;;;;;;;2.23;2.13;;;16.80;99.90;;;;;;4977627;28;20502;-62
2022/10/16 05:22:59;;;;;;;2.40;2.20;;;16.80;99.90;;;;;;4977285;28;21008;-63
2022/10/16 05:25:26;;;;;;;2.23;2.13;;;16.80;99.90;;;;;;4977255;28;21000;-62
2022/10/16 05:27:54;;;;;;;5.03;2.70;;;16.80;99.90;;;;;;4977698;28;20459;-62
2022/10/16 05:30:21;;;;;;;2.53;2.40;;;16.80;99.90;;;;;;4977868;28;20874;-63
2022/10/16 05:32:48;;;;;;;2.33;2.13;;;16.80;99.90;;;;;;4977765;28;20805;-63
2022/10/16 05:35:16;;;;;;;5.47;2.60;;;16.80;99.90;;;;;;4977691;28;20497;-63
2022/10/16 05:37:43;;;;;;;3.07;2.10;;;16.80;99.90;;;;;;4977065;28;21001;-62
2022/10/16 05:40:10;;;;;;;3.33;3.17;;;16.80;99.90;;;;;;4977412;28;20451;-62
2022/10/16 05:42:37;;;;;;;4.37;3.50;;;16.80;99.90;;;;;;4977445;28;20486;-62
2022/10/16 05:45:06;;;;;;;3.40;3.10;;;16.80;99.90;;;;;;4977352;28;20455;-62
2022/10/16 05:47:33;;;;;;;3.30;3.10;;;16.80;99.90;;;;;;4977398;28;20459;-64
2022/10/16 05:50:00;;;;;;;3.97;3.50;;;16.70;99.90;;;;;;4977505;28;20471;-65
2022/10/16 05:52:28;;;;;;;9.10;3.27;;;16.60;99.90;;;;;;4977278;28;20976;-65
2022/10/16 05:54:54;;;;;;;5.13;3.20;;;16.60;99.90;;;;;;4977729;28;20537;-65
2022/10/16 05:57:21;;;;;;;3.30;2.93;;;16.50;99.90;;;;;;4977227;28;20486;-64
2022/10/16 05:59:48;;;;;;;4.27;3.03;;;16.50;99.90;;;;;;4977351;28;20439;-65
2022/10/16 06:02:17;;;;;;;6.83;2.77;;;16.40;99.90;;;;;;4977093;28;20486;-65
2022/10/16 06:04:44;;;;;;;3.43;3.23;;;16.40;99.90;;;;;;4978055;28;20463;-65
2022/10/16 06:07:11;;;;;;;5.30;2.60;;;16.40;99.90;;;;;;4977379;28;20454;-65
2022/10/16 06:09:38;;;;;;;5.30;2.60;;;16.40;99.90;;;;;;4976809;28;20537;-66
2022/10/16 06:12:04;;;;;;;4.37;3.07;;;16.40;99.90;;;;;;4977971;28;20717;-66
2022/10/16 06:14:31;;;;;;;7.10;2.67;;;16.40;99.90;;;;;;4977201;28;20510;-66
2022/10/16 06:16:58;;;;;;;4.10;2.80;;;16.40;99.90;;;;;;4977060;28;20454;-66
2022/10/16 06:19:26;;;;;;;3.47;2.53;;;16.50;99.90;;;;;;4977280;28;20470;-65
2022/10/16 06:21:52;;;;;;;5.33;2.80;;;16.50;99.90;;;;;;4976806;28;20551;-65
2022/10/16 06:24:19;;;;;;;9.37;2.10;;;16.50;99.90;;;;;;4976520;28;20527;-66
2022/10/16 06:26:46;;;;;;;2.10;2.00;;;16.50;99.90;;;;;;4976910;28;20517;-67
2022/10/16 06:29:13;;;;;;;2.80;2.60;;;16.50;99.90;;;;;;4977413;28;20479;-67
2022/10/16 06:31:39;;;;;;;2.10;2.00;;;16.50;99.90;;;;;;4976734;28;20478;-66
2022/10/16 06:34:09;;;;;;;3.30;2.50;;;16.40;99.90;;;;;;4976924;28;20443;-65
2022/10/16 06:36:37;;;;;;;4.23;2.30;;;16.40;99.90;;;;;;4976865;28;20558;-66
2022/10/16 06:39:04;;;;;;;4.93;4.03;;;16.40;99.90;;;;;;4976755;28;20793;-65
2022/10/16 06:41:31;;;;;;;4.30;2.40;;;16.30;99.90;;;;;;4976009;28;20486;-67
2022/10/16 06:43:57;;;;;;;3.20;1.90;;;16.40;99.90;;;;;;4976808;28;20486;-66
2022/10/16 06:46:26;;;;;;;7.83;2.33;;;16.40;99.90;;;;;;4976546;28;20462;-66
2022/10/16 06:48:54;;;;;;;3.33;2.00;;;16.40;99.90;;;;;;4976706;28;20451;-66
2022/10/16 06:51:22;;;;;;;2.43;2.10;;;16.40;99.90;;;;;;4977245;28;20541;-65
2022/10/16 06:53:51;;;;;;;4.03;2.43;;;16.50;99.90;;;;;;4976441;28;20801;-65
2022/10/16 06:56:20;;;;;;;4.50;2.63;;;16.50;99.90;;;;;;4976449;28;20443;-65
2022/10/16 06:58:47;;;;;;;2.77;2.13;;;16.50;99.90;;;;;;4976451;28;20806;-65
2022/10/16 07:01:15;;;;;;;3.47;2.10;;;16.50;99.90;;;;;;4976101;28;20981;-66
2022/10/16 07:03:44;;;;;;;2.43;2.17;;;16.60;99.90;;;;;;4976420;28;20468;-64
2022/10/16 07:06:14;;;;;;;2.30;2.10;;;16.60;99.90;;;;;;4976253;28;20454;-64
2022/10/16 07:08:41;;;;;;;3.30;2.50;;;16.70;99.90;;;;;;4976053;28;20489;-64
2022/10/16 07:11:13;;;;;;;2.20;2.10;;;16.80;99.90;;;;;;4975809;28;20483;-66
2022/10/16 07:13:41;;;;;;;1.90;1.80;;;16.90;99.90;;;;;;4975889;28;20443;-66
2022/10/16 07:16:09;;;;;;;2.00;1.90;;;17.00;99.90;;;;;;4975924;28;20490;-65
2022/10/16 07:18:36;;;;;;;2.20;2.10;;;17.00;99.90;;;;;;4975835;28;20455;-66
2022/10/16 07:21:07;;;;;;;2.63;2.43;;;17.10;99.90;;;;;;4975659;28;20493;-65
2022/10/16 07:23:34;;;;;;;2.20;1.70;;;17.10;99.90;;;;;;4976058;28;20509;-65
2022/10/16 07:26:00;;;;;;;2.53;2.00;;;17.20;99.90;;;;;;4975108;28;20463;-65
2022/10/16 07:28:29;;;;;;;3.80;2.60;;;17.20;99.90;;;;;;4975410;28;20462;-65
2022/10/16 07:30:55;;;;;;;2.40;2.20;;;17.30;99.90;;;;;;4975232;28;20557;-65
2022/10/16 07:33:22;;;;;;;3.63;2.70;;;17.30;99.90;;;;;;4975152;28;20459;-65
2022/10/16 07:35:50;;;;;;;7.20;2.30;;;17.30;99.90;;;;;;4975242;28;20451;-65
2022/10/16 07:38:17;;;;;;;4.47;2.20;;;17.30;99.90;;;;;;4975260;28;20465;-65
2022/10/16 07:40:44;;;;;;;3.40;2.17;;;17.30;99.90;;;;;;4975543;28;20474;-64
2022/10/16 07:43:11;;;;;;;3.37;2.30;;;17.30;99.90;;;;;;4975243;28;20458;-65
2022/10/16 07:45:47;;;;;;;4.00;2.33;;;17.20;99.90;;;;;;4975352;28;20459;-65
2022/10/16 07:48:14;;;;;;;4.13;2.27;;;17.20;99.90;;;;;;4975231;28;20534;-65
2022/10/16 07:50:41;;;;;;;8.60;2.80;;;17.20;99.90;;;;;;4975087;28;20486;-64
2022/10/16 07:53:08;;;;;;;4.43;2.30;;;17.20;99.90;;;;;;4974910;28;20545;-65
2022/10/16 07:55:34;;;;;;;2.83;2.00;;;17.10;99.90;;;;;;4975297;28;20532;-64
2022/10/16 07:58:01;;;;;;;2.33;2.20;;;17.10;99.90;;;;;;4975199;28;20521;-64
2022/10/16 08:00:28;;;;;;;2.97;2.10;;;17.20;99.90;;;;;;4974912;28;20455;-65
2022/10/16 08:02:59;;;;;;;2.40;2.30;;;17.20;99.90;;;;;;4975167;28;20446;-65
2022/10/16 08:05:26;;;;;;;5.30;3.60;;;17.30;99.90;;;;;;4974937;28;20439;-65
2022/10/16 08:07:53;;;;;;;5.60;2.07;;;17.30;99.90;;;;;;4974949;28;20461;-65
2022/10/16 08:10:22;;;;;;;2.93;2.63;;;17.30;99.90;;;;;;4974810;28;20586;-65
2022/10/16 08:12:48;;;;;;;3.60;2.43;;;17.40;99.90;;;;;;4975161;28;20458;-65
2022/10/16 08:15:15;;;;;;;4.00;1.87;;;17.50;99.90;;;;;;4975037;28;20513;-66
2022/10/16 08:17:42;;;;;;;3.17;2.37;;;17.70;99.90;;;;;;4974828;28;20505;-65
2022/10/16 08:20:11;;;;;;;1.77;1.67;;;17.80;99.90;;;;;;4974921;28;20458;-65
2022/10/16 08:22:38;;;;;;;4.83;2.40;;;18.00;99.90;;;;;;4976098;28;20463;-65
2022/10/16 08:25:05;;;;;;;3.13;2.60;;;18.10;99.90;;;;;;4975150;28;20458;-66
2022/10/16 08:27:32;;;;;;;2.23;1.90;;;18.40;99.90;;;;;;4975335;28;20459;-65
2022/10/16 08:29:59;;;;;;;2.43;2.23;;;18.80;99.90;;;;;;4974561;28;20474;-66
2022/10/16 08:32:25;;;;;;;3.37;2.33;;;19.30;99.90;;;;;;4974854;28;20478;-65
2022/10/16 08:34:52;;;;;;;2.13;1.60;;;19.70;99.90;;;;;;4975151;28;20485;-66
2022/10/16 08:37:20;;;;;;;2.77;2.20;;;20.00;99.90;;;;;;4974864;28;20454;-65
2022/10/16 08:39:47;;;;;;;2.87;2.60;;;20.30;99.90;;;;;;4974801;28;20645;-65
2022/10/16 08:42:30;;;;;;;3.23;1.90;;;20.50;99.90;;;;;;4974953;28;20475;-64
2022/10/16 08:45:22;;;;;;;2.47;2.30;;;20.50;99.90;;;;;;4974447;28;20910;-65
2022/10/16 08:47:52;;;;;;;2.10;1.90;;;20.60;99.90;;;;;;4974484;28;20989;-66
2022/10/16 08:50:24;;;;;;;4.67;2.27;;;20.60;99.90;;;;;;4974676;28;20463;-64
2022/10/16 08:52:53;;;;;;;2.10;2.00;;;20.60;99.90;;;;;;4974472;28;20910;-65
2022/10/16 08:55:32;;;;;;;7.00;2.07;;;20.60;99.90;;;;;;4974565;28;20459;-66
2022/10/16 08:57:59;;;;;;;2.33;2.00;;;20.50;99.90;;;;;;4974610;28;20474;-65
2022/10/16 09:00:28;;;;;;;3.27;2.60;;;20.30;99.90;;;;;;4974186;28;20454;-66
2022/10/16 09:03:03;;;;;;;4.83;2.30;;;20.10;99.90;;;;;;4974716;28;20534;-66
2022/10/16 09:05:49;;;;;;;3.53;1.90;;;20.00;99.90;;;;;;4978218;28;20449;-65
2022/10/16 09:08:28;;;;;;;5.63;2.37;;;19.90;99.90;;;;;;4978156;28;20439;-66
2022/10/16 09:11:00;;;;;;;3.03;2.20;;;19.80;99.90;;;;;;4978022;28;20929;-65
2022/10/16 09:13:30;;;;;;;2.73;2.23;;;19.70;99.90;;;;;;4978112;28;20445;-65
2022/10/16 09:16:17;;;;;;;2.83;2.63;;;19.70;99.90;;;;;;4978202;28;20439;-65
2022/10/16 09:18:49;;;;;;;1.97;1.60;;;19.70;99.90;;;;;;4977959;28;20776;-65
2022/10/16 09:21:21;;;;;;;1.83;1.73;;;19.60;99.90;;;;;;4977939;28;20832;-66
2022/10/16 09:23:49;;;;;;;3.00;2.00;;;19.70;99.90;;;;;;4977862;28;20515;-65
2022/10/16 09:26:18;;;;;;;2.97;1.70;;;19.90;99.90;;;;;;4977623;28;20875;-65
2022/10/16 09:28:45;;;;;;;3.80;1.80;;;20.70;99.90;;;;;;4977919;28;20455;-66
2022/10/16 09:31:17;;;;;;;2.60;1.97;;;21.60;99.90;;;;;;4977575;28;20490;-66
2022/10/16 09:33:46;;;;;;;2.77;2.00;;;22.60;99.90;;;;;;4977597;28;20914;-65
2022/10/16 09:36:13;;;;;;;2.60;2.17;;;23.60;99.90;;;;;;4977932;28;20509;-66
2022/10/16 09:38:40;;;;;;;3.50;1.60;;;24.40;99.90;;;;;;4977459;28;20459;-66
2022/10/16 09:41:18;;;;;;;1.73;1.63;;;24.90;99.90;;;;;;4977369;28;20471;-65
2022/10/16 09:43:50;;;;;;;2.10;1.90;;;25.50;99.90;;;;;;4977469;28;20450;-66
2022/10/16 09:46:27;;;;;;;4.67;1.70;;;26.30;99.90;;;;;;4977524;28;20443;-65
2022/10/16 09:48:56;;;;;;;2.33;1.90;;;26.30;99.90;;;;;;4977866;28;20530;-65
2022/10/16 09:51:26;;;;;;;3.30;2.17;;;26.20;99.90;;;;;;4976845;28;20997;-65
2022/10/16 09:53:57;;;;;;;3.50;2.20;;;25.90;99.90;;;;;;4976958;28;21012;-66
2022/10/16 09:56:27;;;;;;;2.50;1.33;;;25.70;99.90;;;;;;4977243;28;20447;-66
2022/10/16 09:58:56;;;;;;;3.90;2.10;;;25.80;99.90;;;;;;4978110;28;20451;-65
2022/10/16 10:01:30;;;;;;;2.20;1.90;;;26.50;99.90;;;;;;4976926;28;20479;-65
2022/10/16 10:04:00;;;;;;;2.50;1.63;;;27.30;99.90;;;;;;4977326;28;20534;-66
2022/10/16 10:06:29;;;;;;;1.63;1.60;;;28.20;99.90;;;;;;4977048;28;20439;-66
2022/10/16 10:09:03;;;;;;;1.80;1.70;;;29.10;99.90;;;;;;4976835;28;20489;-66
2022/10/16 10:11:50;;;;;;;1.90;1.63;;;30.10;98.10;;;;;;4976849;28;20486;-65
2022/10/16 10:14:23;;;;;;;1.60;1.50;;;30.40;96.70;;;;;;4976581;28;20443;-66
2022/10/16 10:16:50;;;;;;;2.23;2.03;;;30.20;94.50;;;;;;4976300;28;20877;-66
2022/10/16 10:19:19;;;;;;;2.30;1.70;;;29.90;95.10;;;;;;4976709;28;20513;-66
2022/10/16 10:21:46;;;;;;;3.33;1.77;;;29.90;95.50;;;;;;4976254;28;20897;-65
2022/10/16 10:24:14;;;;;;;2.60;1.93;;;30.10;94.60;;;;;;4976562;28;20454;-65
2022/10/16 10:26:49;;;;;;;2.50;1.33;;;30.50;92.60;;;;;;4976164;28;20946;-65
2022/10/16 10:29:27;;;;;;;1.93;1.67;;;30.90;92.60;;;;;;4976551;28;20438;-65
2022/10/16 10:32:01;;;;;;;1.73;1.63;;;31.40;91.10;;;;;;4976856;28;20541;-65
2022/10/16 10:34:44;;;;;;;1.50;1.40;;;31.30;89.40;;;;;;4976516;28;20446;-65
2022/10/16 10:37:26;;;;;;;1.47;1.37;;;31.40;90.70;;;;;;4976177;28;20910;-65
2022/10/16 10:40:01;;;;;;;3.37;1.50;;;31.40;87.90;;;;;;4976670;28;20439;-65
2022/10/16 10:42:35;;;;;;;3.43;1.70;;;30.90;87.00;;;;;;4976350;28;20478;-64
2022/10/16 10:45:18;;;;;;;2.03;1.40;;;30.20;88.80;;;;;;4976648;28;20443;-64
2022/10/16 10:47:55;;;;;;;2.97;1.80;;;29.60;90.20;;;;;;4975978;28;20439;-65
2022/10/16 10:50:26;;;;;;;5.80;1.50;;;29.00;92.20;;;;;;4976201;28;20439;-64
2022/10/16 10:53:00;;;;;;;4.93;1.83;;;28.60;92.20;;;;;;4977083;28;20443;-65
2022/10/16 10:55:37;;;;;;;4.27;1.60;;;28.40;92.40;;;;;;4975863;28;21020;-64
2022/10/16 10:58:33;;;;;;;1.73;1.63;;;28.10;92.70;;;;;;4976025;28;20443;-64
2022/10/16 11:01:07;;;;;;;2.10;1.70;;;27.90;93.20;;;;;;4971096;28;20513;-64
2022/10/16 11:03:47;;;;;;;6.63;1.70;;;27.80;94.40;;;;;;4975728;28;20458;-65
2022/10/16 11:06:18;;;;;;;1.53;1.43;;;28.00;94.30;;;;;;4975968;28;20434;-64
2022/10/16 11:08:49;;;;;;;1.70;1.60;;;27.70;95.50;;;;;;4975552;28;20982;-64
2022/10/16 11:11:21;;;;;;;3.80;1.97;;;27.80;93.80;;;;;;4975644;28;20498;-64
2022/10/16 11:13:56;;;;;;;3.50;1.60;;;27.80;93.50;;;;;;4975691;28;20997;-65
2022/10/16 11:16:27;;;;;;;2.10;1.57;;;27.80;93.60;;;;;;4975683;28;20509;-64
2022/10/16 11:19:00;;;;;;;2.80;2.20;;;27.70;94.10;;;;;;4975740;28;20443;-65
2022/10/16 11:21:31;;;;;;;3.00;1.77;;;27.90;96.00;;;;;;4975390;28;20475;-65
2022/10/16 11:24:05;;;;;;;1.67;1.57;;;28.00;95.80;;;;;;4976025;28;20450;-65
2022/10/16 11:26:37;;;;;;;1.40;1.40;;;28.00;94.00;;;;;;4975412;28;20439;-64
2022/10/16 11:29:12;;;;;;;1.83;1.60;;;27.90;94.20;;;;;;4976397;28;20496;-65
2022/10/16 11:31:44;;;;;;;1.93;1.83;;;27.50;95.10;;;;;;4975392;28;20963;-64
2022/10/16 11:34:17;;;;;;;2.10;1.70;;;27.40;94.60;;;;;;4975125;28;20450;-64
2022/10/16 11:36:49;;;;;;;4.63;3.10;;;27.40;97.30;;;;;;4974826;28;20505;-65
2022/10/16 11:39:21;;;;;;;3.03;2.17;;;27.40;95.50;;;;;;4975489;28;20497;-65
2022/10/16 11:41:51;;;;;;;2.60;1.80;;;27.50;95.30;;;;;;4975260;28;20470;-64
2022/10/16 11:44:49;;;;;;;2.50;1.80;;;27.40;96.60;;;;;;4975602;28;20458;-65
2022/10/16 11:47:28;;;;;;;2.03;1.70;;;27.50;95.80;;;;;;4964989;28;20906;-64
2022/10/16 11:50:00;;;;;;;3.00;1.90;;;27.30;95.40;;;;;;4975155;28;20493;-65
2022/10/16 11:52:33;;;;;;;3.17;1.97;;;27.30;95.80;;;;;;4975131;28;20491;-66
2022/10/16 11:55:04;;;;;;;1.70;1.60;;;27.30;95.60;;;;;;4975294;28;20446;-65
2022/10/16 11:57:34;;;;;;;4.53;1.67;;;27.30;94.90;;;;;;4975157;28;20442;-66
2022/10/16 12:00:09;;;;;;;4.20;1.70;;;27.40;95.40;;;;;;4975010;28;20455;-65
2022/10/16 12:02:51;;;;;;;1.77;1.57;;;27.30;95.10;;;;;;4974648;28;20486;-65
2022/10/16 12:05:25;;;;;;;1.80;1.73;;;27.30;94.30;;;;;;4974744;28;20443;-64
2022/10/16 12:08:06;;;;;;;1.67;1.57;;;27.30;97.20;;;;;;4975092;28;20443;-64
2022/10/16 12:10:36;;;;;;;1.43;1.43;;;27.30;94.30;;;;;;4974635;28;20902;-64
2022/10/16 12:13:03;;;;;;;1.70;1.60;;;27.40;94.30;;;;;;4975054;28;20466;-65
2022/10/16 12:15:33;;;;;;;3.17;1.70;;;27.40;95.30;;;;;;4975045;28;20463;-65
2022/10/16 12:18:00;;;;;;;1.60;1.50;;;27.50;94.40;;;;;;4975148;28;20537;-64
2022/10/16 12:20:31;;;;;;;2.43;2.30;;;27.40;94.10;;;;;;4974649;28;20873;-65
2022/10/16 12:23:00;;;;;;;3.30;1.50;;;27.40;96.20;;;;;;4974750;28;20883;-65
2022/10/16 12:25:29;;;;;;;4.13;1.73;;;27.30;95.60;;;;;;4975229;28;20825;-66
2022/10/16 12:28:02;;;;;;;1.73;1.63;;;27.10;97.20;;;;;;4975109;28;20458;-66
2022/10/16 12:30:32;;;;;;;1.67;1.40;;;27.00;95.30;;;;;;4974892;28;20643;-65
2022/10/16 12:33:02;;;;;;;5.17;1.67;;;26.80;96.40;;;;;;4974396;28;20989;-66
2022/10/16 12:35:33;;;;;;;5.20;2.17;;;26.60;97.40;;;;;;4974915;28;20459;-66
2022/10/16 12:38:08;;;;;;;1.73;1.60;;;26.40;98.10;;;;;;4975345;28;20522;-65
2022/10/16 12:40:37;;;;;;;2.53;1.70;;;26.20;97.90;;;;;;4978148;28;20509;-65
2022/10/16 12:43:26;;;;;;;1.30;1.30;;;26.10;97.50;;;;;;4978672;28;20465;-65
2022/10/16 12:46:04;;;;;;;1.93;1.53;;;26.20;98.20;;;;;;4978508;28;20526;-65
2022/10/16 12:48:32;;;;;;;1.33;1.33;;;26.30;99.20;;;;;;4978526;28;20447;-65
2022/10/16 12:51:09;;;;;;;2.30;1.67;;;26.30;97.80;;;;;;4978468;28;20509;-66
2022/10/16 12:53:36;;;;;;;1.40;1.30;;;26.40;98.80;;;;;;4978425;28;20442;-65
2022/10/16 12:56:10;;;;;;;1.70;1.60;;;26.50;98.00;;;;;;4978804;28;20845;-66
2022/10/16 12:58:58;;;;;;;1.77;1.43;;;26.70;96.20;;;;;;4977911;28;20842;-66
2022/10/16 13:01:41;;;;;;;2.73;1.60;;;26.70;97.20;;;;;;4977625;28;21064;-66
2022/10/16 13:04:37;;;;;;;1.63;1.60;;;26.60;97.20;;;;;;4977933;28;20902;-66
2022/10/16 13:07:33;;;;;;;1.70;1.60;;;26.70;97.20;;;;;;4977852;28;20443;-66
2022/10/16 13:10:10;;;;;;;4.20;1.73;;;26.70;99.20;;;;;;4977197;28;20458;-66
2022/10/16 13:13:01;;;;;;;1.60;1.40;;;26.80;98.00;;;;;;4977438;28;20482;-65
2022/10/16 13:15:41;;;;;;;2.67;1.97;;;26.70;97.70;;;;;;4977547;28;20443;-65
2022/10/16 13:18:16;;;;;;;1.70;1.60;;;26.70;98.70;;;;;;4977386;28;21043;-65
2022/10/16 13:21:00;;;;;;;2.83;2.10;;;26.60;97.90;;;;;;4977016;28;20981;-65
2022/10/16 13:23:33;;;;;;;2.70;1.53;;;26.50;99.10;;;;;;4977443;28;20443;-65
2022/10/16 13:26:10;;;;;;;2.13;1.93;;;26.50;99.60;;;;;;4977058;28;20902;-65
2022/10/16 13:28:38;;;;;;;1.63;1.53;;;26.50;98.30;;;;;;4977225;28;20442;-65
2022/10/16 13:31:06;;;;;;;1.90;1.80;;;26.40;99.20;;;;;;4977183;28;20561;-65
2022/10/16 13:33:37;;;;;;;2.80;1.80;;;26.30;99.60;;;;;;4977329;28;20860;-65
2022/10/16 13:36:06;;;;;;;1.90;1.80;;;26.30;99.30;;;;;;4977347;28;20497;-65
2022/10/16 13:38:34;;;;;;;1.70;1.43;;;26.20;99.20;;;;;;4977426;28;20454;-65
2022/10/16 13:41:02;;;;;;;2.37;1.43;;;26.00;99.40;;;;;;4977242;28;20486;-64
2022/10/16 13:43:33;;;;;;;2.07;1.87;;;25.80;99.90;;;;;;4977119;28;20513;-65
2022/10/16 13:46:03;;;;;;;3.80;1.70;;;25.70;99.90;;;;;;4977236;28;20442;-65
2022/10/16 13:48:30;;;;;;;2.23;1.90;;;25.70;99.90;;;;;;4977290;28;20493;-65
2022/10/16 13:51:03;;;;;;;2.60;2.40;;;25.70;99.90;;;;;;4976907;28;20495;-65
2022/10/16 13:53:32;;;;;;;2.40;2.07;;;25.60;99.90;;;;;;4977152;28;20474;-65
2022/10/16 13:56:00;;;;;;;3.40;1.70;;;25.50;99.90;;;;;;4976841;28;20989;-65
2022/10/16 13:58:26;;;;;;;2.03;1.67;;;25.50;99.90;;;;;;4976893;28;20481;-65
2022/10/16 14:00:56;;;;;;;2.97;1.53;;;25.50;99.90;;;;;;4976524;28;20541;-65
2022/10/16 14:03:23;;;;;;;5.70;1.87;;;25.70;99.90;;;;;;4977468;28;20458;-65
2022/10/16 14:05:52;;;;;;;3.20;1.80;;;25.70;99.90;;;;;;4976714;28;20454;-65
2022/10/16 14:08:20;;;;;;;2.13;2.00;;;25.70;99.90;;;;;;4976742;28;20462;-65
2022/10/16 14:10:50;;;;;;;2.03;1.87;;;25.60;99.90;;;;;;4976751;28;20474;-65
2022/10/16 14:13:20;;;;;;;2.70;2.50;;;25.50;99.90;;;;;;4976628;28;20478;-65
2022/10/16 14:15:49;;;;;;;1.90;1.77;;;25.20;99.90;;;;;;4977854;28;20514;-66
2022/10/16 14:18:20;;;;;;;2.23;1.97;;;25.00;99.90;;;;;;4976659;28;20505;-66
2022/10/16 14:20:47;;;;;;;2.20;1.87;;;24.90;99.90;;;;;;4976736;28;20510;-65
2022/10/16 14:23:28;;;;;;;3.03;1.83;;;24.80;99.90;;;;;;4976393;28;20505;-65
2022/10/16 14:26:05;;;;;;;1.87;1.77;;;24.70;99.90;;;;;;4976364;28;20754;-66
2022/10/16 14:28:32;;;;;;;3.30;2.40;;;24.70;99.90;;;;;;4976069;28;20443;-66
2022/10/16 14:31:01;;;;;;;5.80;2.27;;;24.60;99.90;;;;;;4976608;28;20478;-65
2022/10/16 14:33:34;;;;;;;2.10;1.90;;;24.60;99.90;;;;;;4976474;28;20918;-65
2022/10/16 14:36:04;;;;;;;2.17;2.07;;;24.60;99.90;;;;;;4976477;28;20951;-65
2022/10/16 14:38:34;;;;;;;3.40;2.30;;;24.60;99.90;;;;;;4976854;28;20501;-65
2022/10/16 14:41:01;;;;;;;2.73;2.20;;;24.60;99.90;;;;;;4976292;28;20540;-65
2022/10/16 14:43:34;;;;;;;2.00;1.80;;;24.60;99.90;;;;;;4976917;28;20435;-66
2022/10/16 14:46:02;;;;;;;2.00;1.90;;;24.50;99.90;;;;;;4976179;28;20527;-65
2022/10/16 14:48:29;;;;;;;2.03;1.90;;;24.50;99.90;;;;;;4976274;28;20454;-65
2022/10/16 14:50:56;;;;;;;1.97;1.77;;;24.50;99.90;;;;;;4976102;28;20880;-66
2022/10/16 14:53:23;;;;;;;2.47;1.80;;;24.40;99.90;;;;;;4976216;28;20529;-65
2022/10/16 14:55:52;;;;;;;2.10;2.00;;;24.40;99.90;;;;;;4976043;28;20459;-65
2022/10/16 14:58:21;;;;;;;1.73;1.63;;;24.40;99.90;;;;;;4975906;28;20458;-65
2022/10/16 15:00:48;;;;;;;1.73;1.63;;;24.30;99.90;;;;;;4975270;28;20483;-65
2022/10/16 15:03:15;;;;;;;1.90;1.80;;;24.30;99.90;;;;;;4976801;28;20497;-65
2022/10/16 15:05:42;;;;;;;4.13;2.77;;;24.20;99.90;;;;;;4975923;28;20537;-65
2022/10/16 15:08:09;;;;;;;5.23;2.13;;;24.30;99.90;;;;;;4976020;28;20513;-65
2022/10/16 15:10:40;;;;;;;2.00;1.90;;;24.30;99.90;;;;;;4975912;28;20454;-66
2022/10/16 15:13:12;;;;;;;2.80;2.23;;;24.30;99.90;;;;;;4975894;28;20875;-66
2022/10/16 15:15:41;;;;;;;2.40;2.00;;;24.20;99.90;;;;;;4976044;28;20497;-64
2022/10/16 15:18:07;;;;;;;3.17;2.00;;;24.20;99.90;;;;;;4975827;28;20529;-65
2022/10/16 15:20:36;;;;;;;1.63;1.63;;;24.20;99.90;;;;;;4975613;28;20459;-65
2022/10/16 15:23:06;;;;;;;5.10;2.60;;;24.20;99.90;;;;;;4975920;28;20505;-66
2022/10/16 15:25:37;;;;;;;6.63;1.80;;;24.10;99.90;;;;;;4975360;28;20954;-66
2022/10/16 15:28:05;;;;;;;6.63;2.10;;;24.10;99.90;;;;;;4975675;28;20443;-65
2022/10/16 15:30:33;;;;;;;2.40;2.20;;;24.00;99.90;;;;;;4975652;28;20469;-65
2022/10/16 15:33:00;;;;;;;3.03;2.03;;;23.90;99.90;;;;;;4975580;28;20903;-65
2022/10/16 15:35:26;;;;;;;2.63;2.20;;;23.80;99.90;;;;;;4975312;28;20525;-66
2022/10/16 15:37:53;;;;;;;2.13;1.87;;;23.70;99.90;;;;;;4975407;28;20862;-65
2022/10/16 15:40:21;;;;;;;2.87;2.07;;;23.60;99.90;;;;;;4975400;28;20926;-65
2022/10/16 15:42:48;;;;;;;2.40;1.90;;;23.60;99.90;;;;;;4975312;28;20451;-65
2022/10/16 15:45:15;;;;;;;4.73;2.47;;;23.50;99.90;;;;;;4975217;28;20458;-65
2022/10/16 15:47:43;;;;;;;5.63;2.40;;;23.40;99.90;;;;;;4974940;28;20958;-65
2022/10/16 15:50:12;;;;;;;5.63;1.93;;;23.40;99.90;;;;;;4975152;28;20454;-65
2022/10/16 15:52:39;;;;;;;1.80;1.70;;;23.30;99.90;;;;;;4974805;28;20478;-65
2022/10/16 15:55:07;;;;;;;3.00;2.00;;;23.30;99.90;;;;;;4974915;28;20450;-64
2022/10/16 15:57:34;;;;;;;2.30;2.10;;;23.20;99.90;;;;;;4974931;28;20459;-64
2022/10/16 16:00:00;;;;;;;2.67;2.03;;;23.20;99.90;;;;;;4975714;28;20513;-64
2022/10/16 16:02:27;;;;;;;2.60;2.00;;;23.20;99.90;;;;;;4974566;28;20478;-65
2022/10/16 16:04:56;;;;;;;4.40;1.87;;;23.10;99.90;;;;;;4974857;28;20519;-65
2022/10/16 16:07:22;;;;;;;4.13;1.70;;;23.10;99.90;;;;;;4974905;28;20462;-65
2022/10/16 16:09:49;;;;;;;3.73;1.77;;;23.10;99.90;;;;;;4974661;28;20954;-65
2022/10/16 16:12:16;;;;;;;2.63;1.90;;;23.10;99.90;;;;;;4974730;28;20494;-65
2022/10/16 16:14:45;;;;;;;3.20;2.17;;;23.00;99.90;;;;;;4977894;28;20462;-65
2022/10/16 16:17:12;;;;;;;2.33;2.23;;;23.00;99.90;;;;;;4978948;28;20455;-65
2022/10/16 16:19:39;;;;;;;15.27;2.33;;;23.00;99.90;;;;;;4979895;28;20454;-65
2022/10/16 16:22:07;;;;;;;2.10;1.80;;;23.00;99.90;;;;;;4978283;28;21048;-65
2022/10/16 16:24:33;;;;;;;1.80;1.70;;;22.90;99.90;;;;;;4979214;28;20907;-64
2022/10/16 16:27:00;;;;;;;1.63;1.60;;;22.80;99.90;;;;;;4978723;28;20459;-64
2022/10/16 16:29:27;;;;;;;2.33;2.13;;;22.70;99.90;;;;;;4978282;28;21017;-65
2022/10/16 16:31:56;;;;;;;2.17;1.97;;;22.60;99.90;;;;;;4978559;28;20533;-64
2022/10/16 16:34:24;;;;;;;3.97;2.07;;;22.50;99.90;;;;;;4978326;28;20482;-64
2022/10/16 16:36:51;;;;;;;4.07;2.20;;;22.40;99.90;;;;;;4978818;28;20458;-64
2022/10/16 16:39:19;;;;;;;3.80;2.70;;;22.40;99.90;;;;;;4979079;28;20454;-64
2022/10/16 16:41:46;;;;;;;2.73;2.03;;;22.30;99.90;;;;;;4978829;28;20482;-64
2022/10/16 16:44:13;;;;;;;4.00;2.20;;;22.20;99.90;;;;;;4978949;28;20497;-64
2022/10/16 16:46:40;;;;;;;2.63;2.33;;;22.10;99.90;;;;;;4978778;28;20509;-64
2022/10/16 16:49:07;;;;;;;2.60;2.50;;;22.00;99.90;;;;;;4978478;28;20810;-65
2022/10/16 16:51:34;;;;;;;2.17;2.07;;;21.90;99.90;;;;;;4978318;28;20478;-65
2022/10/16 16:54:01;;;;;;;2.60;2.27;;;21.90;99.90;;;;;;4978509;28;20486;-65
2022/10/16 16:56:29;;;;;;;2.63;2.43;;;21.80;99.90;;;;;;4977857;28;20938;-65
2022/10/16 16:58:57;;;;;;;3.43;2.00;;;21.80;99.90;;;;;;4978101;28;20466;-65
2022/10/16 17:01:26;;;;;;;2.90;2.50;;;21.70;99.90;;;;;;4977842;28;20543;-66
2022/10/16 17:03:56;;;;;;;3.00;2.80;;;21.70;99.90;;;;;;4978365;28;20454;-66